Galena Park, Texas
Current Conditions -  °F | °C
As of 10:53 AM on Sunday 23 Nov 2014 (Local Time) from KHOU Reporting Station
Clear Clear  
Wind Chill: 69°   Ceiling: Unl
Heat Index: 69°   Visibility: 10mi
Dew Point: 57°   Wind: 14mph
Humidity: 65%   Direction: 230°SW
Pressure: 29.66"   Gusts: NA
Location:  29.73°N, 95.24°W
Report Text: KHOU 231653Z 23012KT 10SM CLR 21/14 A2966 RMK AO2 SLP047 T02060139
Loading
Personal Weather Stations






























Interactive Weather Map New forecast layout! Learn more

10-Day Weather Forecast

Advertisements
Track Severe Weather on mobile